<?xml version="1.0" encoding="UTF-8" standalone="no" ?>
<gpx xmlns="http://www.topografix.com/GPX/1/1" xmlns:xsi="http://www.w3.org/2001/XMLSchema-instance" xsi:schemaLocation="http://www.topografix.com/GPX/1/1 http://www.topografix.com/GPX/1/1/gpx.xsd" version="1.1" creator="VisuGPX - https://www.visugpx.com">
  <metadata>
    <name>boucle pupille</name>
    <desc><![CDATA[boucle pupille TRJV]]></desc>
  </metadata>
  <trk>
    <name><![CDATA[2013-06-16T11:34:34Z]]></name>
    <trkseg>
      <trkpt lat="45.65184" lon="5.9868">
        <ele>1332.109</ele>
        <time>2013-06-16T11:34:38Z</time>
      </trkpt>
      <trkpt lat="45.65196" lon="5.98687">
        <ele>1332.519</ele>
        <time>2013-06-16T11:34:42Z</time>
      </trkpt>
      <trkpt lat="45.65207" lon="5.98694">
        <ele>1333.66</ele>
        <time>2013-06-16T11:34:45Z</time>
      </trkpt>
      <trkpt lat="45.65228" lon="5.9872">
        <ele>1337.11</ele>
        <time>2013-06-16T11:34:52Z</time>
      </trkpt>
      <trkpt lat="45.65246" lon="5.98738">
        <ele>1338.59</ele>
        <time>2013-06-16T11:34:57Z</time>
      </trkpt>
      <trkpt lat="45.65264" lon="5.98746">
        <ele>1338.849</ele>
        <time>2013-06-16T11:35:01Z</time>
      </trkpt>
      <trkpt lat="45.65295" lon="5.98758">
        <ele>1341.35</ele>
        <time>2013-06-16T11:35:09Z</time>
      </trkpt>
      <trkpt lat="45.65314" lon="5.9876">
        <ele>1344.11</ele>
        <time>2013-06-16T11:35:15Z</time>
      </trkpt>
      <trkpt lat="45.65321" lon="5.98763">
        <ele>1345.3</ele>
        <time>2013-06-16T11:35:17Z</time>
      </trkpt>
      <trkpt lat="45.65335" lon="5.98788">
        <ele>1345.749</ele>
        <time>2013-06-16T11:35:23Z</time>
      </trkpt>
      <trkpt lat="45.65344" lon="5.98814">
        <ele>1345.798</ele>
        <time>2013-06-16T11:35:29Z</time>
      </trkpt>
      <trkpt lat="45.65336" lon="5.98826">
        <ele>1346.258</ele>
        <time>2013-06-16T11:35:33Z</time>
      </trkpt>
      <trkpt lat="45.65316" lon="5.98828">
        <ele>1344.757</ele>
        <time>2013-06-16T11:35:36Z</time>
      </trkpt>
      <trkpt lat="45.65298" lon="5.98826">
        <ele>1343.698</ele>
        <time>2013-06-16T11:35:39Z</time>
      </trkpt>
      <trkpt lat="45.65275" lon="5.98822">
        <ele>1342.278</ele>
        <time>2013-06-16T11:35:43Z</time>
      </trkpt>
      <trkpt lat="45.6526" lon="5.98829">
        <ele>1340.896</ele>
        <time>2013-06-16T11:35:46Z</time>
      </trkpt>
      <trkpt lat="45.65234" lon="5.98854">
        <ele>1337.687</ele>
        <time>2013-06-16T11:35:51Z</time>
      </trkpt>
      <trkpt lat="45.65222" lon="5.98884">
        <ele>1335.938</ele>
        <time>2013-06-16T11:35:55Z</time>
      </trkpt>
      <trkpt lat="45.65216" lon="5.98912">
        <ele>1335.94</ele>
        <time>2013-06-16T11:35:59Z</time>
      </trkpt>
      <trkpt lat="45.65219" lon="5.98941">
        <ele>1336.04</ele>
        <time>2013-06-16T11:36:04Z</time>
      </trkpt>
      <trkpt lat="45.65222" lon="5.98944">
        <ele>1336.04</ele>
        <time>2013-06-16T11:36:05Z</time>
      </trkpt>
      <trkpt lat="45.65249" lon="5.98964">
        <ele>1336.64</ele>
        <time>2013-06-16T11:36:13Z</time>
      </trkpt>
      <trkpt lat="45.65252" lon="5.98968">
        <ele>1336.639</ele>
        <time>2013-06-16T11:36:14Z</time>
      </trkpt>
      <trkpt lat="45.65261" lon="5.98982">
        <ele>1336.459</ele>
        <time>2013-06-16T11:36:17Z</time>
      </trkpt>
      <trkpt lat="45.6527" lon="5.99021">
        <ele>1334.778</ele>
        <time>2013-06-16T11:36:22Z</time>
      </trkpt>
      <trkpt lat="45.65282" lon="5.99054">
        <ele>1334.489</ele>
        <time>2013-06-16T11:36:26Z</time>
      </trkpt>
      <trkpt lat="45.65306" lon="5.99089">
        <ele>1333.969</ele>
        <time>2013-06-16T11:36:32Z</time>
      </trkpt>
      <trkpt lat="45.6531" lon="5.99094">
        <ele>1333.909</ele>
        <time>2013-06-16T11:36:33Z</time>
      </trkpt>
      <trkpt lat="45.6533" lon="5.99107">
        <ele>1336.371</ele>
        <time>2013-06-16T11:36:38Z</time>
      </trkpt>
      <trkpt lat="45.65347" lon="5.9912">
        <ele>1339.471</ele>
        <time>2013-06-16T11:36:44Z</time>
      </trkpt>
      <trkpt lat="45.65359" lon="5.99144">
        <ele>1340.52</ele>
        <time>2013-06-16T11:36:51Z</time>
      </trkpt>
      <trkpt lat="45.65368" lon="5.99159">
        <ele>1341.04</ele>
        <time>2013-06-16T11:36:56Z</time>
      </trkpt>
      <trkpt lat="45.65385" lon="5.99161">
        <ele>1340.599</ele>
        <time>2013-06-16T11:37:01Z</time>
      </trkpt>
      <trkpt lat="45.65389" lon="5.99163">
        <ele>1340.559</ele>
        <time>2013-06-16T11:37:02Z</time>
      </trkpt>
      <trkpt lat="45.65415" lon="5.99176">
        <ele>1342.001</ele>
        <time>2013-06-16T11:37:09Z</time>
      </trkpt>
      <trkpt lat="45.65437" lon="5.99177">
        <ele>1343.881</ele>
        <time>2013-06-16T11:37:15Z</time>
      </trkpt>
      <trkpt lat="45.6544" lon="5.99176">
        <ele>1344.721</ele>
        <time>2013-06-16T11:37:16Z</time>
      </trkpt>
      <trkpt lat="45.65445" lon="5.99153">
        <ele>1349.483</ele>
        <time>2013-06-16T11:37:21Z</time>
      </trkpt>
      <trkpt lat="45.65449" lon="5.99137">
        <ele>1354.274</ele>
        <time>2013-06-16T11:37:24Z</time>
      </trkpt>
      <trkpt lat="45.65459" lon="5.99108">
        <ele>1357.422</ele>
        <time>2013-06-16T11:37:30Z</time>
      </trkpt>
      <trkpt lat="45.65463" lon="5.99095">
        <ele>1358.291</ele>
        <time>2013-06-16T11:37:34Z</time>
      </trkpt>
      <trkpt lat="45.65466" lon="5.99075">
        <ele>1356.29</ele>
        <time>2013-06-16T11:37:38Z</time>
      </trkpt>
      <trkpt lat="45.65469" lon="5.99047">
        <ele>1354.039</ele>
        <time>2013-06-16T11:37:43Z</time>
      </trkpt>
      <trkpt lat="45.65464" lon="5.99004">
        <ele>1354.92</ele>
        <time>2013-06-16T11:37:49Z</time>
      </trkpt>
      <trkpt lat="45.65454" lon="5.98975">
        <ele>1355.9</ele>
        <time>2013-06-16T11:37:53Z</time>
      </trkpt>
      <trkpt lat="45.65435" lon="5.98962">
        <ele>1355.531</ele>
        <time>2013-06-16T11:37:58Z</time>
      </trkpt>
      <trkpt lat="45.65432" lon="5.98952">
        <ele>1356.561</ele>
        <time>2013-06-16T11:38:01Z</time>
      </trkpt>
      <trkpt lat="45.65435" lon="5.98943">
        <ele>1358.512</ele>
        <time>2013-06-16T11:38:04Z</time>
      </trkpt>
      <trkpt lat="45.65444" lon="5.98921">
        <ele>1358.081</ele>
        <time>2013-06-16T11:38:10Z</time>
      </trkpt>
      <trkpt lat="45.65447" lon="5.989">
        <ele>1357.73</ele>
        <time>2013-06-16T11:38:15Z</time>
      </trkpt>
      <trkpt lat="45.65446" lon="5.98883">
        <ele>1360.841</ele>
        <time>2013-06-16T11:38:19Z</time>
      </trkpt>
      <trkpt lat="45.6545" lon="5.9885">
        <ele>1362.412</ele>
        <time>2013-06-16T11:38:25Z</time>
      </trkpt>
      <trkpt lat="45.65458" lon="5.9882">
        <ele>1362.941</ele>
        <time>2013-06-16T11:38:31Z</time>
      </trkpt>
      <trkpt lat="45.65461" lon="5.98792">
        <ele>1363.741</ele>
        <time>2013-06-16T11:38:37Z</time>
      </trkpt>
      <trkpt lat="45.65456" lon="5.9876">
        <ele>1369.572</ele>
        <time>2013-06-16T11:38:44Z</time>
      </trkpt>
      <trkpt lat="45.65453" lon="5.98736">
        <ele>1371.344</ele>
        <time>2013-06-16T11:38:49Z</time>
      </trkpt>
      <trkpt lat="45.65452" lon="5.98732">
        <ele>1372.193</ele>
        <time>2013-06-16T11:38:50Z</time>
      </trkpt>
      <trkpt lat="45.65455" lon="5.9871">
        <ele>1378.934</ele>
        <time>2013-06-16T11:38:56Z</time>
      </trkpt>
      <trkpt lat="45.6546" lon="5.98692">
        <ele>1381.004</ele>
        <time>2013-06-16T11:39:01Z</time>
      </trkpt>
      <trkpt lat="45.65464" lon="5.98667">
        <ele>1384.943</ele>
        <time>2013-06-16T11:39:08Z</time>
      </trkpt>
      <trkpt lat="45.65467" lon="5.98653">
        <ele>1383.541</ele>
        <time>2013-06-16T11:39:12Z</time>
      </trkpt>
      <trkpt lat="45.65471" lon="5.9864">
        <ele>1384.081</ele>
        <time>2013-06-16T11:39:16Z</time>
      </trkpt>
      <trkpt lat="45.65476" lon="5.98621">
        <ele>1382.35</ele>
        <time>2013-06-16T11:39:22Z</time>
      </trkpt>
      <trkpt lat="45.65479" lon="5.98606">
        <ele>1382.02</ele>
        <time>2013-06-16T11:39:26Z</time>
      </trkpt>
      <trkpt lat="45.65488" lon="5.98571">
        <ele>1380.571</ele>
        <time>2013-06-16T11:39:35Z</time>
      </trkpt>
      <trkpt lat="45.65497" lon="5.98541">
        <ele>1379.27</ele>
        <time>2013-06-16T11:39:43Z</time>
      </trkpt>
      <trkpt lat="45.65499" lon="5.98535">
        <ele>1379.06</ele>
        <time>2013-06-16T11:39:45Z</time>
      </trkpt>
      <trkpt lat="45.65493" lon="5.98525">
        <ele>1380.891</ele>
        <time>2013-06-16T11:39:49Z</time>
      </trkpt>
      <trkpt lat="45.65489" lon="5.98528">
        <ele>1380.7</ele>
        <time>2013-06-16T11:39:51Z</time>
      </trkpt>
      <trkpt lat="45.65479" lon="5.98534">
        <ele>1381.859</ele>
        <time>2013-06-16T11:39:56Z</time>
      </trkpt>
      <trkpt lat="45.65469" lon="5.98528">
        <ele>1383.219</ele>
        <time>2013-06-16T11:40:03Z</time>
      </trkpt>
      <trkpt lat="45.6546" lon="5.9852">
        <ele>1384.539</ele>
        <time>2013-06-16T11:40:07Z</time>
      </trkpt>
      <trkpt lat="45.65458" lon="5.9852">
        <ele>1385.68</ele>
        <time>2013-06-16T11:40:10Z</time>
      </trkpt>
      <trkpt lat="45.65458" lon="5.98519">
        <ele>1385.729</ele>
        <time>2013-06-16T11:40:11Z</time>
      </trkpt>
      <trkpt lat="45.65454" lon="5.98518">
        <ele>1385.71</ele>
        <time>2013-06-16T11:40:19Z</time>
      </trkpt>
      <trkpt lat="45.65454" lon="5.98514">
        <ele>1384.138</ele>
        <time>2013-06-16T11:40:24Z</time>
      </trkpt>
      <trkpt lat="45.65453" lon="5.9851">
        <ele>1384.039</ele>
        <time>2013-06-16T11:40:28Z</time>
      </trkpt>
      <trkpt lat="45.65449" lon="5.98507">
        <ele>1384.789</ele>
        <time>2013-06-16T11:40:33Z</time>
      </trkpt>
      <trkpt lat="45.65446" lon="5.98503">
        <ele>1384.969</ele>
        <time>2013-06-16T11:40:35Z</time>
      </trkpt>
      <trkpt lat="45.65433" lon="5.98506">
        <ele>1382.188</ele>
        <time>2013-06-16T11:40:40Z</time>
      </trkpt>
      <trkpt lat="45.6543" lon="5.98509">
        <ele>1382.078</ele>
        <time>2013-06-16T11:40:41Z</time>
      </trkpt>
      <trkpt lat="45.65419" lon="5.98517">
        <ele>1379.997</ele>
        <time>2013-06-16T11:40:45Z</time>
      </trkpt>
      <trkpt lat="45.65408" lon="5.98522">
        <ele>1380.578</ele>
        <time>2013-06-16T11:40:49Z</time>
      </trkpt>
      <trkpt lat="45.65402" lon="5.98521">
        <ele>1380.328</ele>
        <time>2013-06-16T11:40:52Z</time>
      </trkpt>
      <trkpt lat="45.65399" lon="5.9852">
        <ele>1379.538</ele>
        <time>2013-06-16T11:40:56Z</time>
      </trkpt>
      <trkpt lat="45.65393" lon="5.98525">
        <ele>1378.218</ele>
        <time>2013-06-16T11:41:01Z</time>
      </trkpt>
      <trkpt lat="45.65386" lon="5.98532">
        <ele>1375.256</ele>
        <time>2013-06-16T11:41:05Z</time>
      </trkpt>
      <trkpt lat="45.65375" lon="5.98523">
        <ele>1374.858</ele>
        <time>2013-06-16T11:41:10Z</time>
      </trkpt>
      <trkpt lat="45.65361" lon="5.98515">
        <ele>1373.738</ele>
        <time>2013-06-16T11:41:14Z</time>
      </trkpt>
      <trkpt lat="45.65347" lon="5.98505">
        <ele>1371.668</ele>
        <time>2013-06-16T11:41:18Z</time>
      </trkpt>
      <trkpt lat="45.65337" lon="5.98508">
        <ele>1371.278</ele>
        <time>2013-06-16T11:41:21Z</time>
      </trkpt>
      <trkpt lat="45.65336" lon="5.98509">
        <ele>1369.228</ele>
        <time>2013-06-16T11:41:24Z</time>
      </trkpt>
      <trkpt lat="45.65335" lon="5.98515">
        <ele>1369.279</ele>
        <time>2013-06-16T11:41:32Z</time>
      </trkpt>
      <trkpt lat="45.65321" lon="5.98526">
        <ele>1367.918</ele>
        <time>2013-06-16T11:41:37Z</time>
      </trkpt>
      <trkpt lat="45.653" lon="5.98524">
        <ele>1371.06</ele>
        <time>2013-06-16T11:41:41Z</time>
      </trkpt>
      <trkpt lat="45.65284" lon="5.98531">
        <ele>1370.95</ele>
        <time>2013-06-16T11:41:44Z</time>
      </trkpt>
      <trkpt lat="45.6527" lon="5.98532">
        <ele>1369.849</ele>
        <time>2013-06-16T11:41:46Z</time>
      </trkpt>
      <trkpt lat="45.65251" lon="5.98521">
        <ele>1367.569</ele>
        <time>2013-06-16T11:41:51Z</time>
      </trkpt>
      <trkpt lat="45.65227" lon="5.98523">
        <ele>1366.467</ele>
        <time>2013-06-16T11:41:56Z</time>
      </trkpt>
      <trkpt lat="45.65218" lon="5.98532">
        <ele>1362.896</ele>
        <time>2013-06-16T11:41:58Z</time>
      </trkpt>
      <trkpt lat="45.65209" lon="5.98544">
        <ele>1359.135</ele>
        <time>2013-06-16T11:42:00Z</time>
      </trkpt>
      <trkpt lat="45.65188" lon="5.98564">
        <ele>1356.965</ele>
        <time>2013-06-16T11:42:04Z</time>
      </trkpt>
      <trkpt lat="45.65182" lon="5.98566">
        <ele>1356.196</ele>
        <time>2013-06-16T11:42:05Z</time>
      </trkpt>
      <trkpt lat="45.65147" lon="5.98579">
        <ele>1352.066</ele>
        <time>2013-06-16T11:42:10Z</time>
      </trkpt>
      <trkpt lat="45.65116" lon="5.98589">
        <ele>1348.035</ele>
        <time>2013-06-16T11:42:14Z</time>
      </trkpt>
      <trkpt lat="45.65092" lon="5.98586">
        <ele>1348.498</ele>
        <time>2013-06-16T11:42:18Z</time>
      </trkpt>
      <trkpt lat="45.65089" lon="5.98595">
        <ele>1347.108</ele>
        <time>2013-06-16T11:42:21Z</time>
      </trkpt>
      <trkpt lat="45.65092" lon="5.986">
        <ele>1346.367</ele>
        <time>2013-06-16T11:42:22Z</time>
      </trkpt>
      <trkpt lat="45.65101" lon="5.9861">
        <ele>1345.137</ele>
        <time>2013-06-16T11:42:24Z</time>
      </trkpt>
      <trkpt lat="45.65118" lon="5.9862">
        <ele>1342.916</ele>
        <time>2013-06-16T11:42:27Z</time>
      </trkpt>
      <trkpt lat="45.65137" lon="5.9863">
        <ele>1341.477</ele>
        <time>2013-06-16T11:42:30Z</time>
      </trkpt>
      <trkpt lat="45.65157" lon="5.98653">
        <ele>1340.117</ele>
        <time>2013-06-16T11:42:34Z</time>
      </trkpt>
      <trkpt lat="45.65165" lon="5.98667">
        <ele>1338.697</ele>
        <time>2013-06-16T11:42:36Z</time>
      </trkpt>
      <trkpt lat="45.65177" lon="5.98681">
        <ele>1337.401</ele>
        <time>2013-06-16T11:42:39Z</time>
      </trkpt>
    </trkseg>
  </trk>
</gpx>